• Join FlightAware (Why Join?)
  • Login
  • US Flag 
06:57PM EST


 

Airport Tracker/Info


-or-


 

Live Flight TrackerFlight Track Log ✈ SWA1707 ✈ 28-Apr-2013 ✈ KDAL - KABQ

Flight Track Log - Related Links

Times and Time Zones

All times are in EDT time to prevent confusion due to time zone crossing. See the SWA1707 flight status page for this flight to view local times or setup timezone preferences in your user account.

Time Position Orientation Groundspeed Altitude Reporting Facility
EDT Latitude Longitude Course Direction KTS MPH feet Rate Location/Type
10:42PM 32.7833 -96.7833 140° Southeast 225 259 4,300  Level Dallas / Fort Worth TRACON
10:43PM 32.7167 -96.7667 168° South 269 310 6,600 2,826 Climbing Dallas / Fort Worth TRACON
10:44PM 32.6500 -96.8167 212° Southwest 290 334 10,000 2,939 Climbing Dallas / Fort Worth TRACON
10:44PM 32.6172 -96.8511 222° Southwest 297 342 11,400 2,413 Climbing Fort Worth Center
10:45PM 32.6383 -96.9447 285° West 316 364 13,700 2,150 Climbing Fort Worth Center
10:46PM 32.6700 -97.0531 289° West 420 483 15,700 2,450 Climbing Fort Worth Center
10:47PM 32.7017 -97.1642 289° West 359 413 18,600 2,350 Climbing Fort Worth Center
10:48PM 32.7353 -97.2800 289° West 364 419 20,400 2,200 Climbing Fort Worth Center
10:49PM 32.7708 -97.4036 289° West 380 437 23,000 2,100 Climbing Fort Worth Center
10:50PM 32.8061 -97.5297 288° West 401 461 24,600 1,550 Climbing Fort Worth Center
10:51PM 32.8414 -97.6408 291° West 401 461 26,100 1,700 Climbing Fort Worth Center
10:52PM 32.8850 -97.7647 293° West 407 468 28,000 2,050 Climbing Fort Worth Center
10:53PM 32.9286 -97.8861 293° West 407 468 30,200 2,150 Climbing Fort Worth Center
10:54PM 32.9678 -98.0028 292° West 392 451 32,300 1,800 Climbing Fort Worth Center
10:55PM 33.0067 -98.1169 292° West 381 438 33,800 1,300 Climbing Fort Worth Center
10:56PM 33.0456 -98.2386 291° West 374 430 34,900 200 Climbing Fort Worth Center
10:57PM 33.0886 -98.3531 294° West 374 430 34,200 -750 Descending Fort Worth Center
10:58PM 33.1214 -98.4503 292° West 381 438 33,400 -900 Descending Fort Worth Center
10:59PM 33.1619 -98.5772 291° West 381 438 32,400 -700 Descending Fort Worth Center
11:00PM 33.2025 -98.7019 291° West 387 445 32,000 -200 Descending Fort Worth Center
11:01PM 33.2450 -98.8267 292° West 397 457 32,000  Level Fort Worth Center
11:02PM 33.2853 -98.9492 291° West 397 457 32,000  Level Fort Worth Center
11:03PM 33.3275 -99.0767 292° West 403 464 32,000  Level Fort Worth Center
11:04PM 33.3756 -99.2169 292° West 408 470 32,000  Level Fort Worth Center
11:05PM 33.4156 -99.3447 291° West 415 478 32,000  Level Fort Worth Center
11:06PM 33.4572 -99.4725 291° West 415 478 32,000  Level Fort Worth Center
11:07PM 33.5008 -99.6031 292° West 415 478 32,000  Level Fort Worth Center
11:08PM 33.5444 -99.7361 291° West 415 478 32,000  Level Fort Worth Center
11:09PM 33.5878 -99.8694 291° West 426 490 32,000  Level Fort Worth Center
11:10PM 33.6289 -100.0053 290° West 436 502 32,000  Level Fort Worth Center
11:11PM 33.6742 -100.1392 292° West 436 502 32,000  Level Fort Worth Center
11:12PM 33.7169 -100.2753 291° West 436 502 32,000  Level Fort Worth Center
11:13PM 33.7575 -100.4089 290° West 431 496 32,000  Level Fort Worth Center
11:14PM 33.8003 -100.5428 291° West 431 496 32,000  Level Fort Worth Center
11:15PM 33.8408 -100.6719 291° West 431 496 32,000  Level Fort Worth Center
11:16PM 33.8853 -100.8011 293° West 425 489 32,000  Level Fort Worth Center
11:17PM 33.9233 -100.9353 289° West 425 489 32,000  Level Fort Worth Center
11:18PM 33.9656 -101.0672 291° West 425 489 32,000  Level Fort Worth Center
11:19PM 34.0053 -101.1992 290° West 425 489 32,000  Level Fort Worth Center
11:20PM 34.0414 -101.3186 290° West 425 489 32,000  Level Fort Worth Center
11:21PM 34.0847 -101.4633 290° West 420 483 32,000  Level Fort Worth Center
11:22PM 34.1206 -101.5831 290° West 420 483 32,000  Level Fort Worth Center
11:23PM 34.1658 -101.7256 291° West 420 483 32,000  Level Fort Worth Center
11:24PM 34.2047 -101.8606 289° West 413 475 32,000  Level Fort Worth Center
11:27PM 34.2947 -102.1569 290° West 421 484 32,000  Level Albuquerque Center
11:28PM 34.3339 -102.2894 290° West 420 483 32,000  Level Albuquerque Center
11:29PM 34.3733 -102.4231 290° West 420 483 32,000  Level Albuquerque Center
11:30PM 34.4211 -102.5831 290° West 421 484 32,000  Level Albuquerque Center
11:31PM 34.4597 -102.7178 289° West 422 486 32,000  Level Albuquerque Center
11:32PM 34.4978 -102.8544 289° West 422 486 32,000  Level Albuquerque Center
11:33PM 34.5142 -102.9969 278° West 424 488 32,000  Level Albuquerque Center
11:34PM 34.5322 -103.1394 279° West 423 487 32,000  Level Albuquerque Center
11:35PM 34.5489 -103.2819 278° West 422 486 32,000  Level Albuquerque Center
11:36PM 34.5658 -103.4244 278° West 423 487 32,000  Level Albuquerque Center
11:37PM 34.5825 -103.5675 278° West 424 488 32,000  Level Albuquerque Center
11:38PM 34.6142 -103.7075 285° West 425 489 32,000  Level Albuquerque Center
11:39PM 34.6489 -103.8458 287° West 425 489 32,000  Level Albuquerque Center
11:40PM 34.6825 -103.9847 286° West 423 487 32,000  Level Albuquerque Center
11:41PM 34.7167 -104.1233 287° West 424 488 32,000  Level Albuquerque Center
11:42PM 34.7508 -104.2619 287° West 423 487 32,000  Level Albuquerque Center
11:43PM 34.7833 -104.4011 286° West 422 486 32,000  Level Albuquerque Center
11:44PM 34.8169 -104.5400 286° West 422 486 32,000  Level Albuquerque Center
11:45PM 34.8422 -104.6819 282° West 424 488 32,000  Level Albuquerque Center
11:46PM 34.8544 -104.8250 276° West 422 486 32,000  Level Albuquerque Center
11:47PM 34.8675 -104.9697 276° West 423 487 32,000 -541 Level Albuquerque Center
11:48PM 34.8825 -105.1383 276° West 425 489 30,900 -1,659 Descending Albuquerque Center
11:49PM 34.8947 -105.2786 276° West 418 481 28,600 -2,293 Descending Albuquerque Center
11:50PM 34.9083 -105.4144 277° West 407 468 26,200 -1,770 Descending Albuquerque Center
11:51PM 34.9206 -105.5442 277° West 389 448 25,000 -1,475 Descending Albuquerque Center
11:52PM 34.9297 -105.6675 275° West 369 425 23,200 -2,016 Descending Albuquerque Center
11:53PM 34.9403 -105.7975 276° West 378 435 20,900 -2,188 Descending Albuquerque Center
11:54PM 34.9411 -105.8486 271° West 378 435 20,100 -2,032 Descending Albuquerque Center
11:54PM 34.9506 -105.9222 279° West 369 425 18,800 -2,164 Descending Albuquerque Center
11:55PM 34.9517 -105.9781 271° West 356 410 17,900 -1,475 Descending Albuquerque Center
11:55PM 34.9583 -106.0358 278° West 354 407 17,300 -1,377 Descending Albuquerque Center
11:56PM 34.9544 -106.0889 265° West 327 376 16,500 -1,672 Descending Albuquerque Center
11:56PM 34.9569 -106.1444 273° West 329 379 15,600 -1,700 Descending Albuquerque Center
11:57PM 34.9567 -106.1972 270° West 312 359 14,800 -1,770 Descending Albuquerque Center
11:57PM 34.9592 -106.2489 273° West 313 360 13,800 -1,672 Descending Albuquerque Center
11:58PM 34.9581 -106.3006 269° West 304 350 13,100 -1,279 Descending Albuquerque Center
11:58PM 34.9594 -106.3503 272° West 303 349 12,500 -1,100 Descending Albuquerque Center
11:59PM 34.9500 -106.3986 257° West 300 345 12,000 -984 Descending Albuquerque Center
11:59PM 34.9322 -106.4467 246° West 304 350 11,500 -1,082 Descending Albuquerque Center
12:00AM 34.9178 -106.4953 250° West 301 346 10,900 -1,475 Descending Albuquerque Center
12:00AM 34.9006 -106.5428 246° West 304 350 10,000 -1,745 Descending Albuquerque Center
12:01AM 34.8900 -106.5800 251° West 294 338 9,300 -1,672 Descending Albuquerque Center
12:02AM 34.8733 -106.6358 250° West 298 343 8,300 -1,065 Descending Albuquerque Center
12:03AM 34.9258 -106.7031 314° West 287 330 7,400 -934 Descending Albuquerque Center
12:04AM 34.9847 -106.6819 16° North 229 264 6,400 -934 Descending Albuquerque Center
12:05AM 35.0136 -106.6389 51° Northeast 186 214 5,500 -541 Descending Albuquerque Center
12:06AM 35.0436 -106.6022 45° Northeast 178 205 5,300 -197 Descending Albuquerque Center